Terminal Aerodrome Forecast
Issued by NWS Sioux Falls, SD

Home | Current Version | Previous Version | Text Only | Print | Product List | Glossary Off
Versions: 1 2 3 4 5 6 7 8 9 10 11 12 13 14

000
FTUS43 KFSD 301319 AAA
TAFFSD
TAF AMD
KFSD 301319Z 3013/3112 33008KT P6SM OVC008
     FM301600 34008KT P6SM OVC012
     FM301800 35004KT P6SM BKN022
     FM302000 VRB04KT P6SM SCT030
     FM310000 13008KT P6SM SCT070
     FM310700 15012KT P6SM BKN090=

USA.gov is the U.S. government's official web portal to all federal, state and local government web resources and services.